Time;durP1;ratioP1;P1;durP2;ratioP2;P2;SDS_P1;SDS_P2;PMS_P1;PMS_P2;Temp;Humidity;BMP_temperature;BMP_pressure;BME280_temperature;BME280_humidity;BME280_pressure;Samples;Min_cycle;Max_cycle;Signal;HPM_P1;HPM_P2
2021/01/30 00:00:08;;;;;;;32.40;18.17;;;;;;;-1.50;73.53;98407.12;1781817;80;25971;-53
2021/01/30 00:02:36;;;;;;;39.50;17.70;;;;;;;-1.51;73.53;98416.94;1781775;80;25753;-56
2021/01/30 00:05:05;;;;;;;45.50;20.27;;;;;;;-1.52;73.60;98419.86;1781676;80;25703;-55
2021/01/30 00:07:32;;;;;;;42.62;21.07;;;;;;;-1.53;73.61;98423.60;1781892;80;25694;-54
2021/01/30 00:09:59;;;;;;;42.83;18.98;;;;;;;-1.57;73.48;98417.25;1781909;80;25736;-52
2021/01/30 00:12:26;;;;;;;41.05;18.77;;;;;;;;;;1781539;80;25802;-54
2021/01/30 00:14:54;;;;;;;35.60;16.93;;;;;;;-1.64;73.61;98417.55;1781746;80;26512;-51
2021/01/30 00:17:22;;;;;;;34.05;18.35;;;;;;;-1.62;73.83;98422.58;1781861;80;26462;-55
2021/01/30 00:19:49;;;;;;;36.53;18.90;;;;;;;-1.61;73.94;98418.88;1781530;80;25714;-55
2021/01/30 00:22:19;;;;;;;37.53;17.20;;;;;;;-1.62;74.00;98413.30;1781877;80;25987;-57
2021/01/30 00:24:48;;;;;;;32.45;16.80;;;;;;;-1.63;73.87;98413.06;1781922;80;25797;-55
2021/01/30 00:27:20;;;;;;;39.20;17.92;;;;;;;-1.66;73.66;98415.71;1781766;80;25704;-54
2021/01/30 00:29:48;;;;;;;35.50;16.62;;;;;;;-1.69;73.86;98418.91;1781813;80;25784;-55
2021/01/30 00:32:17;;;;;;;38.53;17.70;;;;;;;-1.70;73.99;98416.01;1781802;80;25864;-55
2021/01/30 00:34:44;;;;;;;;;;;;;;;-1.68;74.15;98414.41;1784371;80;25743;-56
2021/01/30 00:37:16;;;;;;;33.80;16.77;;;;;;;-1.65;74.03;98410.68;1782023;80;27171;-55
2021/01/30 00:39:43;;;;;;;32.05;18.17;;;;;;;-1.70;73.95;98406.73;1781741;80;25806;-53
2021/01/30 00:42:12;;;;;;;31.07;18.75;;;;;;;-1.70;73.95;98405.41;1781783;80;25686;-53
2021/01/30 00:44:40;;;;;;;31.02;16.90;;;;;;;-1.73;73.90;98400.65;1781910;80;25795;-51
2021/01/30 00:47:07;;;;;;;38.50;18.15;;;;;;;-1.71;74.17;98397.18;1781884;80;26364;-46
2021/01/30 00:49:35;;;;;;;30.17;17.17;;;;;;;-1.70;74.18;98399.56;1781675;80;25775;-53
2021/01/30 00:52:03;;;;;;;35.63;18.05;;;;;;;-1.67;74.10;98396.09;1781776;80;25691;-55
2021/01/30 00:54:29;;;;;;;34.75;17.00;;;;;;;-1.71;74.10;98393.20;1781818;80;25809;-53
2021/01/30 00:56:57;;;;;;;36.83;19.65;;;;;;;-1.72;74.10;98392.94;1766410;80;25806;-55
2021/01/30 00:59:24;;;;;;;31.82;17.50;;;;;;;-1.73;74.00;98393.48;1740534;81;25875;-54
2021/01/30 01:01:52;;;;;;;33.28;18.10;;;;;;;-1.74;74.20;98388.45;1768222;81;26367;-52
2021/01/30 01:04:21;;;;;;;36.58;19.65;;;;;;;-1.76;74.05;98382.09;1768046;81;25856;-55
2021/01/30 01:06:48;;;;;;;35.92;19.42;;;;;;;-1.73;74.32;98390.05;1767908;81;25792;-55
2021/01/30 01:09:17;;;;;;;38.53;20.43;;;;;;;-1.72;74.43;98389.77;1768348;81;25680;-55
2021/01/30 01:11:48;;;;;;;43.17;20.57;;;;;;;-1.74;74.25;98379.17;1768152;81;25660;-49
2021/01/30 01:14:17;;;;;;;41.80;19.57;;;;;;;-1.77;74.08;98383.17;1740214;81;27202;-51
2021/01/30 01:16:44;;;;;;;39.65;20.25;;;;;;;-1.80;74.14;98382.39;1768235;81;25787;-54
2021/01/30 01:19:11;;;;;;;39.73;21.15;;;;;;;-1.84;74.26;98381.88;1768137;81;25823;-55
2021/01/30 01:21:38;;;;;;;40.30;21.60;;;;;;;-1.86;74.46;98382.16;1768186;78;26561;-54
2021/01/30 01:24:06;;;;;;;41.80;20.82;;;;;;;-1.87;74.61;98380.58;1768499;81;25740;-54
2021/01/30 01:26:32;;;;;;;43.30;20.95;;;;;;;-1.93;74.59;98376.37;1768111;81;25791;-52
2021/01/30 01:28:59;;;;;;;38.38;20.52;;;;;;;-1.89;74.66;98385.34;1768217;81;25716;-54
2021/01/30 01:31:26;;;;;;;40.98;20.32;;;;;;;-1.86;74.94;98387.45;1768343;81;25569;-54
2021/01/30 01:33:53;;;;;;;37.05;20.17;;;;;;;-1.90;74.85;98387.21;1768190;81;25711;-54
2021/01/30 01:36:21;;;;;;;43.87;24.23;;;;;;;-1.91;74.94;98387.48;1768284;81;26055;-56
2021/01/30 01:38:49;;;;;;;41.53;21.48;;;;;;;-1.90;75.05;98390.40;1768457;81;26139;-53
2021/01/30 01:41:16;;;;;;;43.02;22.25;;;;;;;-1.92;75.24;98388.02;1767887;81;25976;-52
2021/01/30 01:43:43;;;;;;;41.02;21.85;;;;;;;-1.88;75.46;98393.02;1768343;81;25772;-50
2021/01/30 01:46:27;;;;;;;42.23;20.48;;;;;;;-1.87;75.35;98389.86;1768203;81;25672;-46
2021/01/30 01:49:08;;;;;;;43.40;22.95;;;;;;;-1.82;75.55;98389.02;1767438;81;25756;-45
2021/01/30 01:51:46;;;;;;;42.17;21.85;;;;;;;-1.79;75.72;98382.63;1768148;81;26121;-50
2021/01/30 01:54:20;;;;;;;40.25;22.52;;;;;;;-1.76;75.74;98379.98;1768058;81;25750;-51
2021/01/30 01:56:55;;;;;;;41.40;23.12;;;;;;;-1.74;75.78;98381.31;1774019;79;25916;-49
2021/01/30 01:59:22;;;;;;;45.17;21.90;;;;;;;-1.73;75.84;98379.44;1734516;82;25847;-51
2021/01/30 02:01:51;;;;;;;43.60;23.02;;;;;;;-1.71;75.89;98383.93;1734275;81;25835;-51
2021/01/30 02:04:20;;;;;;;43.35;22.25;;;;;;;-1.66;75.92;98381.79;1704883;83;26436;-45
2021/01/30 02:06:48;;;;;;;;;;;;;;;-1.62;76.05;98378.83;1737116;82;25803;-50
2021/01/30 02:09:20;;;;;;;46.98;22.93;;;;;;;-1.60;76.04;98379.34;1734504;82;25763;-47
2021/01/30 02:12:04;;;;;;;40.38;21.20;;;;;;;-1.59;75.94;98389.67;1734016;81;25823;-52
2021/01/30 02:14:44;;;;;;;40.47;20.73;;;;;;;-1.51;75.86;98398.38;1815276;78;33904;-47
2021/01/30 02:17:47;;;;;;;40.28;21.50;;;;;;;-1.59;75.82;98391.00;1786148;80;25836;-51
2021/01/30 02:20:43;;;;;;;40.85;20.40;;;;;;;-1.54;75.84;98396.81;1786254;80;26341;-48
2021/01/30 02:23:36;;;;;;;43.13;21.15;;;;;;;-1.52;75.76;98395.45;1785554;80;25822;-50
2021/01/30 02:26:45;;;;;;;40.12;20.68;;;;;;;-1.51;75.76;98396.27;1786976;79;25361;-49
2021/01/30 02:29:54;;;;;;;44.42;21.12;;;;;;;-1.54;75.79;98384.34;1788474;80;25559;-45
2021/01/30 02:32:50;;;;;;;41.37;22.50;;;;;;;-1.56;75.79;98381.17;1788382;80;25782;-47
2021/01/30 02:36:15;;;;;;;36.77;19.45;;;;;;;-1.55;75.87;98386.75;1788397;79;26346;-48
2021/01/30 02:38:59;;;;;;;42.48;22.15;;;;;;;-1.55;75.80;98373.49;1788314;80;25566;-47
2021/01/30 02:41:33;;;;;;;37.48;19.37;;;;;;;-1.53;75.76;98378.52;1767287;80;25636;-49
2021/01/30 02:44:04;;;;;;;45.25;23.57;;;;;;;-1.53;75.72;98376.66;1788508;80;25329;-47
2021/01/30 02:46:36;;;;;;;40.35;21.68;;;;;;;-1.52;75.76;98383.52;1761902;80;25531;-48
2021/01/30 02:49:11;;;;;;;44.25;21.73;;;;;;;-1.52;75.99;98374.24;1788361;80;25920;-45
2021/01/30 02:51:44;;;;;;;38.73;21.68;;;;;;;-1.52;75.92;98378.22;1788284;79;25539;-48
2021/01/30 02:54:13;;;;;;;39.48;20.00;;;;;;;-1.46;76.20;98383.48;1788453;80;25488;-47
2021/01/30 02:56:40;;;;;;;42.58;21.68;;;;;;;-1.46;76.19;98379.00;1788284;80;25633;-49
2021/01/30 02:59:15;;;;;;;42.40;20.55;;;;;;;-1.46;76.02;98377.67;1788435;80;25532;-52
2021/01/30 03:01:41;;;;;;;37.17;19.87;;;;;;;-1.45;76.27;98377.13;1788157;80;25790;-48
2021/01/30 03:04:19;;;;;;;47.33;23.73;;;;;;;-1.46;76.30;98372.37;1788331;80;25509;-48
2021/01/30 03:07:10;;;;;;;43.85;20.52;;;;;;;-1.45;76.44;98372.61;1788293;80;25583;-47
2021/01/30 03:09:41;;;;;;;38.50;22.07;;;;;;;-1.47;76.29;98368.12;1787060;80;25682;-46
2021/01/30 03:12:22;;;;;;;39.83;21.73;;;;;;;-1.51;76.10;98377.16;1787359;80;25373;-49
2021/01/30 03:14:59;;;;;;;46.90;25.12;;;;;;;-1.55;76.17;98379.31;1788281;80;26169;-47
2021/01/30 03:17:30;;;;;;;36.90;19.57;;;;;;;-1.59;76.21;98382.27;1788215;80;25539;-47
2021/01/30 03:20:00;;;;;;;45.65;23.52;;;;;;;-1.64;76.34;98380.43;1788716;80;25510;-48
2021/01/30 03:22:31;;;;;;;37.60;21.00;;;;;;;-1.63;76.58;98382.57;1788554;79;25639;-47
2021/01/30 03:25:00;;;;;;;45.52;22.27;;;;;;;-1.69;76.41;98371.19;1788350;80;25590;-48
2021/01/30 03:27:31;;;;;;;43.28;23.10;;;;;;;-1.73;76.55;98372.27;1788287;80;25715;-46
2021/01/30 03:29:59;;;;;;;44.15;22.40;;;;;;;-1.70;76.82;98378.35;1787968;80;25535;-47
2021/01/30 03:32:29;;;;;;;42.63;22.93;;;;;;;-1.73;76.92;98381.55;1788262;80;25343;-50
2021/01/30 03:34:58;;;;;;;44.65;21.33;;;;;;;-1.72;76.98;98379.17;1788091;80;25406;-50
2021/01/30 03:37:25;;;;;;;47.17;23.73;;;;;;;-1.74;77.13;98379.17;1788174;80;25630;-48
2021/01/30 03:39:52;;;;;;;45.45;25.00;;;;;;;-1.73;77.11;98376.79;1788065;80;25994;-49
2021/01/30 03:42:18;;;;;;;53.75;24.15;;;;;;;-1.75;77.14;98377.60;1788056;80;25669;-51
2021/01/30 03:44:46;;;;;;;48.68;26.15;;;;;;;-1.75;77.25;98377.06;1787971;80;25421;-46
2021/01/30 03:47:13;;;;;;;48.35;24.50;;;;;;;-1.74;77.29;98367.24;1788052;80;25338;-48
2021/01/30 03:49:40;;;;;;;57.40;27.67;;;;;;;-1.74;77.37;98372.55;1788106;80;25514;-51
2021/01/30 03:52:06;;;;;;;53.13;25.23;;;;;;;-1.77;77.30;98369.92;1788006;80;26242;-50
2021/01/30 03:54:33;;;;;;;52.15;25.12;;;;;;;-1.78;77.28;98367.55;1787970;80;25382;-49
2021/01/30 03:57:00;;;;;;;50.60;27.48;;;;;;;-1.81;77.31;98364.11;1787960;80;25395;-46
2021/01/30 03:59:27;;;;;;;56.28;27.10;;;;;;;-1.81;77.41;98370.19;1788011;80;25500;-49
2021/01/30 04:01:54;;;;;;;59.93;30.82;;;;;;;-1.80;77.43;98376.31;1788098;80;25506;-47
2021/01/30 04:04:21;;;;;;;57.25;27.55;;;;;;;-1.85;77.31;98368.39;1787974;80;25773;-47
2021/01/30 04:06:49;;;;;;;60.48;28.27;;;;;;;-1.87;77.58;98367.34;1787958;80;25764;-47
2021/01/30 04:09:20;;;;;;;53.80;28.35;;;;;;;-1.88;77.63;98364.41;1787951;80;25515;-47
2021/01/30 04:11:47;;;;;;;57.83;29.05;;;;;;;-1.84;77.76;98365.98;1787618;80;25480;-48
2021/01/30 04:14:15;;;;;;;64.97;32.08;;;;;;;-1.86;77.83;98356.97;1787778;80;25570;-49
2021/01/30 04:16:41;;;;;;;65.75;28.15;;;;;;;-1.83;77.80;98353.00;1787830;80;26163;-47
2021/01/30 04:19:08;;;;;;;68.22;31.90;;;;;;;-1.84;77.66;98349.53;1787762;80;25354;-49
2021/01/30 04:21:35;;;;;;;58.42;30.15;;;;;;;-1.82;77.75;98355.89;1787778;80;25590;-47
2021/01/30 04:24:03;;;;;;;61.33;30.20;;;;;;;-1.79;77.86;98350.05;1787857;80;25545;-45
2021/01/30 04:26:30;;;;;;;70.55;35.13;;;;;;;-1.79;77.74;98349.50;1787450;80;25434;-51
2021/01/30 04:28:57;;;;;;;67.25;30.95;;;;;;;-1.78;77.74;98347.13;1787773;80;25702;-50
2021/01/30 04:31:24;;;;;;;61.18;30.57;;;;;;;-1.79;77.61;98352.70;1787687;80;25401;-48
2021/01/30 04:33:51;;;;;;;62.48;30.75;;;;;;;-1.78;77.80;98352.97;1787377;80;25598;-48
2021/01/30 04:36:21;;;;;;;62.00;30.50;;;;;;;-1.78;77.88;98351.09;1787651;80;25591;-49
2021/01/30 04:38:48;;;;;;;62.60;33.50;;;;;;;-1.78;77.88;98350.31;1787996;80;25389;-49
2021/01/30 04:41:41;;;;;;;59.27;29.07;;;;;;;-1.75;77.98;98349.77;1787658;80;26231;-47
2021/01/30 04:44:19;;;;;;;63.45;32.75;;;;;;;-1.73;78.06;98356.91;1787697;80;25576;-49
2021/01/30 04:47:19;;;;;;;56.88;27.45;;;;;;;-1.72;77.99;98354.50;1787710;80;25630;-46
2021/01/30 04:50:03;;;;;;;59.80;29.05;;;;;;;-1.72;78.03;98344.70;1770181;80;25591;-47
2021/01/30 04:53:00;;;;;;;58.98;28.55;;;;;;;-1.73;77.95;98350.28;1787680;80;25554;-50
2021/01/30 04:55:54;;;;;;;63.28;29.27;;;;;;;-1.75;77.83;98341.82;1787249;80;26947;-49
2021/01/30 04:58:56;;;;;;;62.50;27.05;;;;;;;-1.82;77.82;98332.84;1787716;80;25590;-48
2021/01/30 05:01:40;;;;;;;68.17;32.48;;;;;;;-1.85;77.81;98336.59;1787683;80;25574;-45
2021/01/30 05:04:24;;;;;;;59.25;29.63;;;;;;;-1.89;77.91;98332.34;1787422;80;25506;-49
2021/01/30 05:07:08;;;;;;;65.75;29.55;;;;;;;-1.89;77.97;98337.64;1761252;80;25594;-48
2021/01/30 05:09:55;;;;;;;59.38;30.35;;;;;;;-1.89;78.18;98335.80;1787618;80;26161;-48
2021/01/30 05:12:30;;;;;;;61.05;29.82;;;;;;;-1.88;78.14;98333.94;1786127;80;25551;-44
2021/01/30 05:15:24;;;;;;;55.83;28.80;;;;;;;-1.90;78.12;98334.75;1787420;80;25495;-45
2021/01/30 05:18:04;;;;;;;66.25;30.37;;;;;;;-1.93;78.04;98332.64;1787979;80;25558;-49
2021/01/30 05:20:35;;;;;;;54.73;26.27;;;;;;;-1.96;78.04;98340.63;1788053;80;25657;-47
2021/01/30 05:23:08;;;;;;;59.93;28.15;;;;;;;-1.95;78.21;98328.16;1787945;80;26223;-44
2021/01/30 05:25:34;;;;;;;60.17;30.68;;;;;;;-1.96;78.27;98329.20;1789570;80;25386;-48
2021/01/30 05:28:16;;;;;;;57.58;28.32;;;;;;;-1.93;78.34;98331.31;1787703;80;25555;-45
2021/01/30 05:31:09;;;;;;;59.98;31.52;;;;;;;-1.93;78.37;98323.37;1787853;80;25511;-47
2021/01/30 05:33:56;;;;;;;53.40;27.17;;;;;;;-1.89;78.42;98330.50;1735472;80;25392;-47
2021/01/30 05:36:34;;;;;;;56.70;29.60;;;;;;;-1.90;78.33;98334.20;1787950;80;25906;-46
2021/01/30 05:39:32;;;;;;;56.58;27.32;;;;;;;-1.87;78.33;98328.91;1786395;80;25556;-46
2021/01/30 05:42:53;;;;;;;59.42;27.93;;;;;;;-1.85;78.39;98329.95;1786517;80;25526;-47
2021/01/30 05:45:47;;;;;;;56.13;27.20;;;;;;;-1.85;78.40;98328.09;1787818;80;25579;-44
2021/01/30 05:48:21;;;;;;;59.53;28.55;;;;;;;-1.87;78.40;98322.28;1788095;80;25635;-49
2021/01/30 05:51:14;;;;;;;58.00;27.32;;;;;;;-1.92;78.41;98317.80;1788058;80;26442;-50
2021/01/30 05:53:43;;;;;;;55.03;28.45;;;;;;;-1.91;78.44;98321.23;1787782;80;25527;-48
2021/01/30 05:56:11;;;;;;;56.90;29.32;;;;;;;-1.93;78.55;98326.80;1788054;80;25557;-47
2021/01/30 05:58:44;;;;;;;55.60;28.52;;;;;;;-1.96;78.41;98320.75;1787891;80;25686;-49
2021/01/30 06:01:22;;;;;;;60.12;31.60;;;;;;;-1.94;78.60;98320.45;1787983;80;25641;-47
2021/01/30 06:04:05;;;;;;;57.53;27.15;;;;;;;-1.92;78.65;98324.42;1787955;80;26602;-47
2021/01/30 06:06:50;;;;;;;58.83;29.13;;;;;;;-1.90;78.39;98324.93;1848638;76;33124;-48
2021/01/30 06:09:40;;;;;;;56.58;27.02;;;;;;;-1.97;78.47;98328.97;1818745;78;25326;-48
2021/01/30 06:12:32;;;;;;;57.78;28.50;;;;;;;-1.97;78.59;98319.69;1818890;78;25694;-48
2021/01/30 06:15:16;;;;;;;54.15;26.97;;;;;;;-1.96;78.69;98323.91;1786890;78;25353;-47
2021/01/30 06:17:43;;;;;;;54.85;26.82;;;;;;;-1.95;78.81;98320.98;1787211;78;25358;-48
2021/01/30 06:20:18;;;;;;;56.30;27.95;;;;;;;-1.93;78.72;98323.37;1818795;78;25420;-45
2021/01/30 06:22:49;;;;;;;58.35;28.40;;;;;;;-1.95;78.64;98322.31;1818651;78;25536;-48
2021/01/30 06:25:32;;;;;;;63.95;30.30;;;;;;;-1.97;78.74;98321.80;1814528;78;26850;-45
2021/01/30 06:28:10;;;;;;;52.10;27.70;;;;;;;-1.96;78.84;98323.40;1818681;78;25595;-48
2021/01/30 06:30:46;;;;;;;56.23;29.40;;;;;;;-1.96;78.84;98327.38;1818738;78;25319;-45
2021/01/30 06:33:27;;;;;;;50.78;25.27;;;;;;;-1.93;78.88;98326.80;1818673;78;25344;-45
2021/01/30 06:36:10;;;;;;;54.95;27.25;;;;;;;-1.92;78.86;98325.75;1818287;78;25539;-45
2021/01/30 06:38:48;;;;;;;57.93;26.40;;;;;;;-1.90;78.96;98322.28;1818817;78;25762;-46
2021/01/30 06:41:23;;;;;;;50.15;24.63;;;;;;;-1.86;78.96;98327.04;1786900;78;25346;-50
2021/01/30 06:44:15;;;;;;;51.15;27.62;;;;;;;-1.83;78.97;98329.92;1811673;78;25444;-48
2021/01/30 06:47:11;;;;;;;57.00;27.10;;;;;;;-1.80;78.97;98320.65;1812557;78;25435;-48
2021/01/30 06:49:43;;;;;;;47.50;27.02;;;;;;;-1.79;78.83;98321.67;1818663;78;25638;-45
2021/01/30 06:52:24;;;;;;;48.35;25.23;;;;;;;-1.76;78.92;98322.99;1818786;78;27022;-44
2021/01/30 06:55:11;;;;;;;50.60;27.25;;;;;;;-1.74;78.91;98320.85;1818517;78;25578;-48
2021/01/30 06:58:03;;;;;;;48.73;24.45;;;;;;;-1.71;78.91;98325.06;1818591;78;25382;-47
2021/01/30 07:00:33;;;;;;;51.20;28.25;;;;;;;-1.68;78.91;98317.66;1818704;78;25594;-46
2021/01/30 07:03:32;;;;;;;47.80;24.60;;;;;;;-1.66;78.86;98322.92;1818707;78;25562;-47
2021/01/30 07:06:23;;;;;;;38.30;22.15;;;;;;;-1.63;78.88;98316.28;1818599;78;27243;-47
2021/01/30 07:09:19;;;;;;;47.27;24.67;;;;;;;-1.57;78.71;98319.92;1848646;76;33759;-48
2021/01/30 07:11:53;;;;;;;49.40;27.00;;;;;;;-1.61;78.67;98322.88;1800645;78;25735;-49
2021/01/30 07:14:57;;;;;;;48.35;23.55;;;;;;;-1.56;78.70;98322.84;1818762;78;27192;-49
2021/01/30 07:17:43;;;;;;;57.83;31.37;;;;;;;-1.52;78.76;98325.73;1818347;78;25333;-47
2021/01/30 07:20:33;;;;;;;55.03;26.25;;;;;;;-1.46;78.61;98323.81;1818521;78;25356;-49
2021/01/30 07:23:20;;;;;;;56.30;29.72;;;;;;;-1.46;78.65;98314.53;1818881;78;25433;-47
2021/01/30 07:25:56;;;;;;;60.88;31.87;;;;;;;-1.46;78.65;98321.98;1818642;78;25546;-50
2021/01/30 07:28:40;;;;;;;65.62;32.05;;;;;;;-1.44;78.64;98316.40;1818585;78;27131;-49
2021/01/30 07:31:30;;;;;;;60.05;31.80;;;;;;;-1.45;78.54;98319.56;1818734;78;25458;-49
2021/01/30 07:34:05;;;;;;;63.83;29.02;;;;;;;-1.40;78.77;98322.17;1818637;78;25536;-44
2021/01/30 07:36:39;;;;;;;61.02;32.53;;;;;;;-1.36;78.82;98327.73;1818743;78;25573;-47
2021/01/30 07:39:23;;;;;;;73.87;37.05;;;;;;;-1.33;78.60;98328.48;1818209;78;25388;-50
2021/01/30 07:42:03;;;;;;;65.20;31.23;;;;;;;-1.30;78.57;98325.83;1818146;78;26261;-45
2021/01/30 07:45:01;;;;;;;68.70;34.95;;;;;;;-1.31;78.43;98323.72;1818635;78;25487;-49
2021/01/30 07:48:05;;;;;;;67.80;33.80;;;;;;;-1.36;78.27;98323.22;1818302;78;25613;-49
2021/01/30 07:50:36;;;;;;;59.33;33.02;;;;;;;-1.34;78.46;98321.62;1818538;78;25397;-46
2021/01/30 07:53:28;;;;;;;72.92;32.88;;;;;;;-1.29;78.70;98317.59;1818731;78;25319;-47
2021/01/30 07:56:33;;;;;;;58.83;30.60;;;;;;;-1.20;79.14;98311.14;1818692;78;26851;-50
2021/01/30 07:59:29;;;;;;;56.28;29.52;;;;;;;-1.09;79.19;98316.63;1818595;78;25574;-49
2021/01/30 08:02:37;;;;;;;47.45;25.15;;;;;;;-1.00;79.17;98313.59;1818559;78;25424;-47
2021/01/30 08:05:36;;;;;;;47.57;29.80;;;;;;;-0.87;78.75;98317.47;1858706;76;29135;-43
2021/01/30 08:08:36;;;;;;;44.90;23.47;;;;;;;-0.88;78.34;98316.41;1839924;77;25675;-45
2021/01/30 08:11:16;;;;;;;;;;;;;;;-0.81;78.28;98315.53;1849488;77;25818;-48
2021/01/30 08:14:15;;;;;;;51.20;27.22;;;;;;;-0.76;78.10;98316.80;1843038;77;27722;-50
2021/01/30 08:17:04;;;;;;;;;;;;;;;-0.75;77.97;98313.06;1849377;77;25625;-50
2021/01/30 08:19:51;;;;;;;48.55;26.48;;;;;;;-0.71;77.94;98311.44;1795537;77;25573;-51
2021/01/30 08:22:33;;;;;;;52.13;28.87;;;;;;;-0.72;77.96;98311.17;1839400;77;25516;-53
2021/01/30 08:25:07;;;;;;;45.58;26.90;;;;;;;-0.67;78.16;98316.42;1757564;80;26390;-47
2021/01/30 08:27:41;;;;;;;49.95;25.65;;;;;;;-0.66;77.97;98314.03;1763039;80;25646;-46
2021/01/30 08:30:18;;;;;;;49.63;27.87;;;;;;;-0.63;78.06;98312.15;1773983;80;25544;-52
2021/01/30 08:32:55;;;;;;;46.33;24.92;;;;;;;-0.60;77.83;98312.11;1755692;80;25622;-51
2021/01/30 08:35:27;;;;;;;51.37;27.40;;;;;;;-0.60;77.72;98311.56;1792444;79;25672;-52
2021/01/30 08:38:08;;;;;;;53.80;26.23;;;;;;;-0.53;77.81;98311.77;1796043;79;25904;-49
2021/01/30 08:40:54;;;;;;;54.20;29.25;;;;;;;-0.52;77.71;98308.05;1787553;79;25639;-48
2021/01/30 08:43:45;;;;;;;51.98;27.75;;;;;;;-0.47;77.84;98310.09;1796015;79;25586;-49
2021/01/30 08:46:26;;;;;;;47.10;24.40;;;;;;;-0.40;77.91;98307.09;1779200;79;25805;-49
2021/01/30 08:49:16;;;;;;;45.33;25.20;;;;;;;-0.31;77.98;98313.88;1781886;79;25570;-54
2021/01/30 08:51:45;;;;;;;;;;;;;;;-0.24;77.65;98309.00;1782454;79;25766;-60
2021/01/30 08:54:41;;;;;;;43.17;25.37;;;;;;;-0.22;77.60;98309.53;1782164;79;25696;-57
2021/01/30 08:57:37;;;;;;;44.80;22.65;;;;;;;-0.16;77.67;98305.71;1783543;79;25541;-58
2021/01/30 09:00:12;;;;;;;43.75;22.67;;;;;;;-0.09;77.61;98309.34;1783788;80;25522;-57
2021/01/30 09:02:45;;;;;;;40.67;24.60;;;;;;;-0.06;77.48;98306.91;1778534;79;25390;-57
2021/01/30 09:05:26;;;;;;;42.03;23.62;;;;;;;-0.02;77.51;98309.77;1779465;79;25713;-56
2021/01/30 09:08:12;;;;;;;43.45;25.02;;;;;;;-0.01;77.26;98316.13;1783807;79;25550;-56
2021/01/30 09:10:41;;;;;;;41.35;23.18;;;;;;;-0.01;77.01;98318.01;1793032;79;25599;-58
2021/01/30 09:13:18;;;;;;;39.80;23.63;;;;;;;-0.05;76.96;98315.14;1794501;79;25786;-58
2021/01/30 09:15:58;;;;;;;39.05;22.45;;;;;;;-0.02;76.91;98312.43;1790457;79;25782;-58
2021/01/30 09:18:36;;;;;;;41.95;24.45;;;;;;;0.02;76.86;98306.00;1788189;79;27269;-57
2021/01/30 09:21:26;;;;;;;45.85;25.65;;;;;;;0.03;76.71;98314.23;1795158;79;25625;-58
2021/01/30 09:24:18;;;;;;;40.95;23.80;;;;;;;0.05;76.58;98313.41;1793610;79;26095;-57
2021/01/30 09:27:11;;;;;;;41.33;24.82;;;;;;;0.03;76.47;98307.05;1780349;78;25858;-55
2021/01/30 09:29:45;;;;;;;42.73;24.82;;;;;;;0.04;76.35;98317.94;1790704;79;25804;-59
2021/01/30 09:32:14;;;;;;;46.18;26.10;;;;;;;0.05;76.42;98320.05;1786998;79;26787;-59
2021/01/30 09:34:51;;;;;;;;;;;;;;;0.09;76.58;98322.40;1790576;79;25744;-58
2021/01/30 09:37:35;;;;;;;42.83;22.98;;;;;;;0.11;76.53;98317.58;1793862;79;26315;-59
2021/01/30 09:40:07;;;;;;;46.02;25.62;;;;;;;0.08;76.59;98310.95;1783576;79;25630;-57
2021/01/30 09:42:34;;;;;;;44.10;25.10;;;;;;;0.12;76.58;98317.81;1784270;79;25697;-58
2021/01/30 09:45:10;;;;;;;46.85;28.30;;;;;;;0.10;76.43;98320.78;1785137;79;26790;-58
2021/01/30 09:47:42;;;;;;;65.72;32.50;;;;;;;0.09;76.26;98313.09;1788115;79;25843;-57
2021/01/30 09:50:20;;;;;;;66.30;32.70;;;;;;;0.09;76.45;98309.89;1791650;79;25617;-57
2021/01/30 09:53:10;;;;;;;53.65;26.57;;;;;;;0.14;76.76;98311.69;1786160;79;25673;-60
2021/01/30 09:55:37;;;;;;;51.18;27.58;;;;;;;0.20;76.61;98308.41;1758068;79;25746;-58
2021/01/30 09:58:16;;;;;;;38.35;20.62;;;;;;;0.24;76.46;98309.40;1789377;79;27115;-59
2021/01/30 10:00:45;;;;;;;33.25;20.60;;;;;;;0.28;76.43;98313.86;1793295;79;25768;-62
2021/01/30 10:03:19;;;;;;;33.05;20.70;;;;;;;0.29;76.21;98324.77;1786502;79;25713;-59
2021/01/30 10:05:53;;;;;;;37.00;21.70;;;;;;;0.29;76.12;98321.29;1783493;79;25796;-60
2021/01/30 10:08:34;;;;;;;33.83;20.90;;;;;;;0.31;76.36;98319.16;1760731;79;25776;-58
2021/01/30 10:11:08;;;;;;;35.25;21.17;;;;;;;0.35;76.46;98326.80;1790200;79;26582;-55
2021/01/30 10:13:39;;;;;;;41.02;24.43;;;;;;;0.35;76.43;98322.80;1783895;79;25574;-50
2021/01/30 10:16:11;;;;;;;46.83;21.37;;;;;;;0.38;76.24;98324.11;1785567;79;25682;-53
2021/01/30 10:18:43;;;;;;;40.73;23.80;;;;;;;0.35;76.06;98320.14;1784118;79;25682;-56
2021/01/30 10:21:11;;;;;;;42.62;23.02;;;;;;;0.35;76.00;98322.80;1783032;79;25740;-51
2021/01/30 10:23:48;;;;;;;39.85;22.50;;;;;;;0.35;76.18;98320.14;1785648;79;27211;-57
2021/01/30 10:26:23;;;;;;;38.42;20.97;;;;;;;0.35;76.13;98321.48;1779640;79;25854;-53
2021/01/30 10:28:57;;;;;;;36.45;21.12;;;;;;;0.36;76.16;98327.05;1790959;79;25733;-56
2021/01/30 10:31:44;;;;;;;40.58;22.22;;;;;;;0.34;76.16;98327.86;1785099;79;26366;-52
2021/01/30 10:34:29;;;;;;;39.53;22.22;;;;;;;0.35;76.16;98328.12;1781915;79;25716;-48
2021/01/30 10:37:12;;;;;;;40.12;22.60;;;;;;;0.35;76.13;98326.80;1783366;79;26678;-47
2021/01/30 10:39:47;;;;;;;40.55;23.07;;;;;;;0.33;76.18;98332.41;1789473;79;25823;-56
2021/01/30 10:42:21;;;;;;;45.52;24.82;;;;;;;0.32;76.38;98341.99;1784979;79;25749;-50
2021/01/30 10:44:53;;;;;;;40.20;24.23;;;;;;;0.33;76.38;98347.58;1784523;79;25739;-53
2021/01/30 10:47:26;;;;;;;54.23;29.20;;;;;;;0.33;76.50;98344.37;1794393;79;25689;-53
2021/01/30 10:50:11;;;;;;;57.93;29.00;;;;;;;0.34;76.63;98335.84;1794359;79;25714;-56
2021/01/30 10:52:38;;;;;;;55.80;28.15;;;;;;;0.31;76.57;98334.56;1789663;79;25613;-53
2021/01/30 10:55:26;;;;;;;51.53;27.25;;;;;;;0.32;76.51;98334.02;1785554;79;25634;-47
2021/01/30 10:58:21;;;;;;;51.95;26.45;;;;;;;0.32;76.28;98339.34;1847225;76;35518;-52
2021/01/30 11:01:07;;;;;;;54.90;27.93;;;;;;;0.21;76.17;98327.28;1817127;78;26302;-51
2021/01/30 11:03:59;;;;;;;45.92;24.52;;;;;;;0.15;76.33;98316.73;1782490;78;25891;-51
2021/01/30 11:06:47;;;;;;;48.85;26.00;;;;;;;0.13;76.38;98324.17;1816320;78;25654;-54
2021/01/30 11:09:24;;;;;;;43.45;22.75;;;;;;;0.15;76.63;98332.68;1817429;78;25421;-52
2021/01/30 11:12:10;;;;;;;44.42;23.47;;;;;;;0.17;76.66;98341.67;1817421;78;25533;-49
2021/01/30 11:14:39;;;;;;;43.52;23.40;;;;;;;0.16;76.65;98336.90;1816807;78;25692;-54
2021/01/30 11:17:28;;;;;;;37.33;22.55;;;;;;;0.20;76.75;98341.09;1817321;78;25685;-54
2021/01/30 11:19:58;;;;;;;42.60;22.42;;;;;;;0.20;76.74;98339.77;1817405;78;25879;-49
2021/01/30 11:22:28;;;;;;;37.98;22.30;;;;;;;0.25;76.87;98334.92;1817085;78;26365;-49
2021/01/30 11:25:14;;;;;;;36.77;21.42;;;;;;;0.27;76.90;98343.40;1817391;78;25734;-54
2021/01/30 11:27:47;;;;;;;40.48;20.12;;;;;;;0.27;76.73;98336.20;1817255;78;25669;-51
2021/01/30 11:30:26;;;;;;;39.23;21.02;;;;;;;0.28;76.70;98330.36;1817479;78;25976;-53
2021/01/30 11:32:58;;;;;;;38.00;20.92;;;;;;;0.28;76.45;98335.69;1817420;78;25601;-52
2021/01/30 11:35:29;;;;;;;41.28;21.77;;;;;;;0.30;76.56;98339.63;1816371;78;25641;-50
2021/01/30 11:38:01;;;;;;;42.80;23.27;;;;;;;0.32;76.75;98340.14;1816936;78;25615;-53
2021/01/30 11:40:28;;;;;;;44.63;22.82;;;;;;;0.33;76.81;98343.03;1798569;77;25669;-55
2021/01/30 11:42:55;;;;;;;43.87;24.02;;;;;;;0.35;76.66;98340.88;1816095;78;26637;-53
2021/01/30 11:45:21;;;;;;;44.35;24.30;;;;;;;0.36;76.71;98339.81;1816070;78;25686;-54
2021/01/30 11:47:50;;;;;;;38.02;22.02;;;;;;;0.41;76.93;98346.12;1815908;78;25707;-54
2021/01/30 11:50:34;;;;;;;47.23;24.35;;;;;;;0.43;76.80;98342.10;1816427;78;25708;-54
2021/01/30 11:53:18;;;;;;;47.60;24.75;;;;;;;0.44;76.70;98345.55;1816412;78;25817;-53
2021/01/30 11:55:46;;;;;;;48.68;26.40;;;;;;;0.46;76.79;98343.38;1816078;78;26701;-54
2021/01/30 11:58:16;;;;;;;48.08;27.55;;;;;;;0.49;76.76;98350.78;1822092;78;25823;-51
2021/01/30 12:00:43;;;;;;;49.42;26.37;;;;;;;0.50;76.69;98352.38;1822735;78;25732;-54
2021/01/30 12:03:26;;;;;;;45.50;26.05;;;;;;;0.51;76.72;98348.10;1822436;78;25716;-54
2021/01/30 12:05:54;;;;;;;69.53;32.13;;;;;;;0.50;76.62;98347.84;1822496;78;25760;-53
2021/01/30 12:08:21;;;;;;;57.05;30.90;;;;;;;0.44;76.56;98344.22;1822304;78;26219;-52